KIRK/IRK METAR and TAF weather

Enter ICAO airport designator
Station Type Date Time Source
KIRK METAR 2020/07/07 23:55 UTC NOAA

KIRK 072355Z AUTO 24004KT 10SM CLR 32/22 A2993 RMK AO2 SLP127 T03220217 10339 20317 56010


Station Type Date Time Source
KIRK Decoded METAR 2020/07/07 23:55 UTC NOAA

KIRKSVILLE REGIONAL AIRPORT , MO, United States (KIRK) 40-06N 092-33W 293M
Jul 07, 2020 - 07:55 PM EDT / 2020.07.07 2355 UTC
Wind: from the WSW (240 degrees) at 5 MPH (4 KT):0
Visibility: 10 mile(s):0
Sky conditions: clear
Temperature: 90.0 F (32.2 C)
Heat index: 96.1 F (35.6 C):1
Dew Point: 71.1 F (21.7 C)
Relative Humidity: 53%
Pressure (altimeter): 29.93 in. Hg (1013 hPa)
Pressure tendency: 0.03 inches (1.0 hPa) lower than three hours ago
ob: KIRK 072355Z AUTO 24004KT 10SM CLR 32/22 A2993 RMK AO2 SLP127 T03220217 10339 20317 56010
cycle: 0

Station Type Date Time Source
KIRK TAF UTC NOAA

Error!

Example: see airport list